Time;durP1;ratioP1;P1;durP2;ratioP2;P2;SDS_P1;SDS_P2;PMS_P1;PMS_P2;Temp;Humidity;BMP_temperature;BMP_pressure;BME280_temperature;BME280_humidity;BME280_pressure;Samples;Min_cycle;Max_cycle;Signal;HPM_P1;HPM_P2
2021/06/21 00:02:19;;;;;;;7.82;5.25;;;;;;;23.89;48.31;100287.34;5103157;28;20374;-63
2021/06/21 00:04:44;;;;;;;7.95;5.45;;;;;;;23.88;48.45;100290.25;5107753;28;20035;-63
2021/06/21 00:07:10;;;;;;;7.60;5.68;;;;;;;23.87;48.41;100300.38;5103144;28;20471;-64
2021/06/21 00:09:35;;;;;;;7.10;5.82;;;;;;;23.83;48.51;100296.31;5107436;28;20467;-65
2021/06/21 00:12:00;;;;;;;11.30;5.40;;;;;;;23.51;48.56;100250.28;5106122;28;20120;-64
2021/06/21 00:14:26;;;;;;;8.85;5.28;;;;;;;23.80;48.45;100304.94;5088721;28;20048;-65
2021/06/21 00:16:52;;;;;;;8.35;5.45;;;;;;;23.77;48.65;100314.38;5088044;28;20103;-66
2021/06/21 00:19:17;;;;;;;6.47;5.30;;;;;;;23.77;49.02;100310.78;5094490;28;20032;-62
2021/06/21 00:21:42;;;;;;;9.23;5.50;;;;;;;23.51;49.22;100271.28;5107676;28;20204;-65
2021/06/21 00:24:08;;;;;;;8.75;5.15;;;;;;;23.69;49.10;100316.41;5103122;28;20165;-65
2021/06/21 00:26:34;;;;;;;12.05;5.57;;;;;;;23.70;49.11;100307.19;5107066;28;20080;-67
2021/06/21 00:29:03;;;;;;;8.38;5.82;;;;;;;23.71;49.25;100306.13;5107880;28;20035;-63
2021/06/21 00:31:28;;;;;;;7.60;5.93;;;;;;;23.70;49.03;100318.13;5097292;28;20410;-64
2021/06/21 00:33:54;;;;;;;7.50;5.47;;;;;;;23.69;49.32;100319.16;5091204;28;20479;-55
2021/06/21 00:36:19;;;;;;;8.05;5.50;;;;;;;23.68;49.19;100312.00;5095811;28;20038;-63
2021/06/21 00:38:45;;;;;;;6.38;5.30;;;;;;;23.63;49.15;100309.84;5111598;27;20034;-63
2021/06/21 00:41:10;;;;;;;8.48;5.28;;;;;;;23.68;48.82;100312.00;5104941;28;20117;-62
2021/06/21 00:43:36;;;;;;;6.05;5.15;;;;;;;23.63;49.18;100309.84;5093966;28;20032;-63
2021/06/21 00:46:01;;;;;;;7.63;5.72;;;;;;;23.60;49.35;100316.53;5091296;28;20528;-63
2021/06/21 00:48:27;;;;;;;7.15;5.20;;;;;;;23.46;49.41;100287.44;5099270;28;20061;-63
2021/06/21 00:50:52;;;;;;;6.00;5.25;;;;;;;23.60;49.39;100311.09;5111335;28;20130;-63
2021/06/21 00:53:19;;;;;;;6.70;5.30;;;;;;;23.59;49.70;100309.41;5106461;28;20031;-62
2021/06/21 00:55:45;;;;;;;7.05;5.57;;;;;;;23.57;49.72;100308.75;5110355;28;20050;-65
2021/06/21 00:58:11;;;;;;;6.50;5.35;;;;;;;23.53;49.96;100304.72;5110738;28;20031;-64
2021/06/21 01:00:36;;;;;;;6.43;5.00;;;;;;;23.47;50.19;100294.59;5111223;28;20031;-65
2021/06/21 01:03:08;;;;;;;8.90;4.72;;;;;;;23.49;50.31;100304.25;5111695;28;20118;-63
2021/06/21 01:05:35;;;;;;;9.90;5.97;;;;;;;23.46;50.37;100304.66;5112139;28;20173;-65
2021/06/21 01:08:04;;;;;;;7.57;5.80;;;;;;;23.47;50.09;100316.47;5111567;28;20486;-63
2021/06/21 01:10:30;;;;;;;6.50;5.55;;;;;;;23.41;50.28;100312.63;5111779;28;20040;-64
2021/06/21 01:13:30;;;;;;;10.82;5.43;;;;;;;23.50;50.58;100310.59;5113342;28;20048;-60
2021/06/21 01:16:17;;;;;;;7.30;4.90;;;;;;;23.44;50.49;100316.84;5113266;28;20104;-55
2021/06/21 01:19:17;;;;;;;9.50;5.50;;;;;;;23.45;50.56;100321.28;5112242;28;20570;-67
2021/06/21 01:22:22;;;;;;;9.00;5.25;;;;;;;23.49;50.21;100320.66;5092676;28;20100;-66
2021/06/21 01:24:51;;;;;;;9.63;4.80;;;;;;;23.47;50.19;100321.91;5113417;28;20041;-62
2021/06/21 01:27:35;;;;;;;9.93;5.47;;;;;;;23.46;50.38;100303.84;5113009;28;20751;-64
2021/06/21 01:30:13;;;;;;;7.72;5.50;;;;;;;23.51;50.54;100317.75;5112514;28;20050;-64
2021/06/21 01:32:43;;;;;;;8.43;5.15;;;;;;;23.46;50.39;100307.41;5112791;28;20398;-65
2021/06/21 01:35:36;;;;;;;8.43;5.28;;;;;;;23.50;50.66;100326.97;5112770;28;20039;-64
2021/06/21 01:38:05;;;;;;;8.43;5.45;;;;;;;23.48;50.89;100320.88;5111953;28;20043;-67
2021/06/21 01:40:38;;;;;;;9.50;5.43;;;;;;;23.44;51.03;100322.31;5110627;28;20508;-64
2021/06/21 01:43:05;;;;;;;7.65;5.43;;;;;;;23.47;50.91;100333.69;5112537;28;20124;-66
2021/06/21 01:45:33;;;;;;;6.03;5.43;;;;;;;23.49;51.12;100333.50;5112315;28;20419;-65
2021/06/21 01:48:01;;;;;;;7.25;5.25;;;;;;;23.49;51.08;100331.59;5111989;28;20429;-63
2021/06/21 01:50:27;;;;;;;10.13;5.93;;;;;;;23.45;50.94;100319.38;5112279;28;20492;-64
2021/06/21 01:53:00;;;;;;;11.85;6.30;;;;;;;23.53;51.10;100340.25;5112292;28;20043;-65
2021/06/21 01:55:28;;;;;;;6.90;5.88;;;;;;;23.44;51.01;100319.59;5112141;28;20035;-65
2021/06/21 01:57:56;;;;;;;11.65;6.20;;;;;;;23.44;50.96;100320.41;5112481;28;20106;-65
2021/06/21 02:00:23;;;;;;;8.65;5.80;;;;;;;23.56;50.83;100336.28;5111739;28;20035;-66
2021/06/21 02:02:52;;;;;;;10.68;6.82;;;;;;;23.60;51.05;100337.59;5110960;28;20024;-67
2021/06/21 02:05:18;;;;;;;6.65;5.75;;;;;;;23.57;51.08;100316.94;5112116;28;20186;-64
2021/06/21 02:07:47;;;;;;;8.27;6.05;;;;;;;23.55;51.02;100313.56;5111719;28;20071;-66
2021/06/21 02:10:13;;;;;;;11.52;5.90;;;;;;;23.69;50.47;100327.34;5112082;28;20123;-65
2021/06/21 02:12:39;;;;;;;12.00;6.03;;;;;;;23.77;50.41;100332.66;5111625;28;20066;-65
2021/06/21 02:15:07;;;;;;;8.98;5.68;;;;;;;23.82;50.15;100319.25;5111805;28;20479;-65
2021/06/21 02:17:35;;;;;;;10.32;5.82;;;;;;;23.94;49.70;100311.31;5112240;27;20039;-66
2021/06/21 02:20:03;;;;;;;7.03;6.18;;;;;;;24.14;49.52;100319.72;5111613;28;20039;-65
2021/06/21 02:22:31;;;;;;;10.10;5.55;;;;;;;24.39;49.02;100308.25;5111603;28;20032;-61
2021/06/21 02:25:06;;;;;;;8.63;6.07;;;;;;;24.72;48.58;100320.41;5112036;28;20036;-65
2021/06/21 02:27:34;;;;;;;6.70;6.03;;;;;;;24.93;47.49;100309.28;5111770;28;20486;-64
2021/06/21 02:30:00;;;;;;;7.80;5.63;;;;;;;25.15;47.19;100295.44;5111845;28;20051;-61
2021/06/21 02:32:26;;;;;;;7.60;5.47;;;;;;;25.53;46.38;100307.69;5110806;28;20023;-65
2021/06/21 02:34:52;;;;;;;8.82;5.40;;;;;;;25.84;45.90;100294.41;5111028;28;20111;-64
2021/06/21 02:37:18;;;;;;;6.25;5.47;;;;;;;26.31;44.71;100303.38;5111273;28;20394;-63
2021/06/21 02:39:44;;;;;;;11.70;5.88;;;;;;;26.61;43.61;100293.75;5111580;28;20522;-64
2021/06/21 02:42:10;;;;;;;8.43;5.63;;;;;;;27.23;42.39;100304.16;5111634;28;20511;-64
2021/06/21 02:44:36;;;;;;;11.98;6.03;;;;;;;27.45;41.53;100284.53;5110726;28;20042;-64
2021/06/21 02:47:03;;;;;;;7.75;5.40;;;;;;;27.84;41.33;100310.03;5111401;28;20035;-61
2021/06/21 02:49:29;;;;;;;7.70;5.30;;;;;;;28.02;41.19;100308.38;5111654;28;20032;-65
2021/06/21 02:52:01;;;;;;;8.85;5.00;;;;;;;28.02;40.13;100284.44;5111286;28;20031;-65
2021/06/21 02:54:38;;;;;;;11.35;5.25;;;;;;;28.31;40.62;100297.72;5111475;28;20096;-64
2021/06/21 02:57:20;;;;;;;8.40;5.05;;;;;;;28.61;39.18;100307.91;5110499;28;20106;-62
2021/06/21 02:59:47;;;;;;;7.65;5.43;;;;;;;28.86;38.79;100318.84;5090677;28;20042;-64
2021/06/21 03:02:15;;;;;;;8.48;5.47;;;;;;;29.24;38.28;100305.78;5090743;28;20028;-61
2021/06/21 03:04:45;;;;;;;9.57;5.50;;;;;;;29.72;36.93;100306.69;5090440;28;20031;-64
2021/06/21 03:07:13;;;;;;;8.32;5.10;;;;;;;30.10;36.33;100323.03;5090289;28;20032;-64
2021/06/21 03:09:43;;;;;;;8.90;4.95;;;;;;;30.47;35.08;100306.97;5090704;28;20047;-65
2021/06/21 03:12:10;;;;;;;7.25;5.10;;;;;;;30.72;34.57;100296.69;5090377;28;20139;-64
2021/06/21 03:14:36;;;;;;;10.27;5.68;;;;;;;30.83;34.50;100306.03;5089947;28;20448;-67
2021/06/21 03:17:06;;;;;;;7.30;5.35;;;;;;;30.92;34.44;100319.19;5090525;28;20140;-63
2021/06/21 03:19:32;;;;;;;10.55;5.03;;;;;;;31.06;34.29;100314.19;5090955;28;20044;-66
2021/06/21 03:21:58;;;;;;;11.50;5.18;;;;;;;31.23;33.47;100283.00;5090296;28;20046;-64
2021/06/21 03:24:26;;;;;;;7.72;5.30;;;;;;;31.79;32.89;100321.81;5090334;28;20450;-65
2021/06/21 03:26:52;;;;;;;8.35;5.03;;;;;;;31.85;31.85;100261.84;5089944;28;20407;-65
2021/06/21 03:29:20;;;;;;;6.90;4.90;;;;;;;32.74;30.88;100330.28;5090356;28;20035;-65
2021/06/21 03:31:50;;;;;;;13.07;5.10;;;;;;;33.04;30.59;100317.88;5090443;28;20042;-62
2021/06/21 03:34:18;;;;;;;8.20;5.10;;;;;;;33.32;30.22;100325.06;5088524;28;20040;-66
2021/06/21 03:36:44;;;;;;;7.78;5.22;;;;;;;33.49;29.41;100310.22;5088426;28;20387;-62
2021/06/21 03:39:09;;;;;;;8.75;4.70;;;;;;;33.70;28.87;100279.84;5090487;28;20028;-68
2021/06/21 03:41:35;;;;;;;7.43;3.90;;;;;;;34.42;27.38;100318.31;5089839;28;20032;-66
2021/06/21 03:44:01;;;;;;;7.95;4.00;;;;;;;34.78;26.85;100316.50;5089351;28;20019;-64
2021/06/21 03:46:29;;;;;;;6.80;3.42;;;;;;;35.21;25.59;100330.22;5106730;28;20035;-64
2021/06/21 03:48:55;;;;;;;6.38;3.60;;;;;;;35.63;24.83;100330.25;5106297;28;20035;-63
2021/06/21 03:51:21;;;;;;;6.28;3.20;;;;;;;35.98;23.97;100322.94;5109666;28;20039;-64
2021/06/21 03:53:47;;;;;;;6.47;3.30;;;;;;;36.42;23.22;100340.94;5109834;28;20144;-65
2021/06/21 03:56:13;;;;;;;4.90;2.88;;;;;;;36.84;22.07;100333.22;5109895;28;20088;-68
2021/06/21 03:58:39;;;;;;;6.70;3.05;;;;;;;37.37;21.89;100333.69;5109989;28;20134;-64
2021/06/21 04:01:05;;;;;;;6.95;2.85;;;;;;;37.54;21.34;100297.81;5110487;28;20146;-65
2021/06/21 04:03:30;;;;;;;6.65;3.17;;;;;;;37.70;20.84;100303.25;5109901;28;20038;-66
2021/06/21 04:05:56;;;;;;;5.60;2.97;;;;;;;37.54;21.13;100331.34;5113482;28;20036;-66
2021/06/21 04:08:21;;;;;;;13.52;3.20;;;;;;;37.25;21.80;100340.50;5113958;28;20379;-66
2021/06/21 04:10:48;;;;;;;5.22;3.22;;;;;;;37.16;21.64;100350.63;5114152;28;20089;-64
2021/06/21 04:13:16;;;;;;;13.35;3.42;;;;;;;37.25;21.30;100300.56;5113965;28;20353;-64
2021/06/21 04:15:44;;;;;;;4.95;3.35;;;;;;;38.29;19.97;100345.94;5113912;28;20120;-65
2021/06/21 04:18:13;;;;;;;6.57;3.20;;;;;;;39.22;18.79;100341.03;5114094;28;20047;-65
2021/06/21 04:20:40;;;;;;;6.20;2.88;;;;;;;40.23;17.75;100342.63;5114117;28;20027;-64
2021/06/21 04:23:07;;;;;;;3.15;2.83;;;;;;;40.83;17.14;100346.44;5114313;28;20054;-64
2021/06/21 04:25:33;;;;;;;3.58;3.28;;;;;;;41.38;16.37;100356.66;5114107;28;20039;-64
2021/06/21 04:27:59;;;;;;;4.65;3.20;;;;;;;41.60;16.17;100305.25;5113808;28;20028;-65
2021/06/21 04:30:25;;;;;;;5.85;2.70;;;;;;;42.23;15.62;100348.53;5114211;28;20111;-66
2021/06/21 04:32:52;;;;;;;7.50;3.22;;;;;;;42.50;15.08;100352.28;5113672;28;20027;-65
2021/06/21 04:35:21;;;;;;;5.68;3.10;;;;;;;42.87;14.84;100350.84;5113964;27;20118;-63
2021/06/21 04:37:46;;;;;;;7.95;3.38;;;;;;;43.18;14.41;100349.03;5114000;28;20031;-67
2021/06/21 04:40:14;;;;;;;4.45;3.03;;;;;;;43.44;14.01;100348.19;5113334;28;20502;-67
2021/06/21 04:42:41;;;;;;;9.57;3.25;;;;;;;44.14;13.86;100350.81;5113569;28;20035;-65
2021/06/21 04:45:08;;;;;;;4.45;3.00;;;;;;;44.64;13.10;100356.84;5113718;28;20031;-65
2021/06/21 04:47:33;;;;;;;8.18;3.00;;;;;;;45.26;12.38;100350.69;5113948;28;20664;-65
2021/06/21 04:50:04;;;;;;;8.25;3.20;;;;;;;45.83;12.14;100354.78;5113199;28;20083;-67
2021/06/21 04:52:35;;;;;;;7.72;3.20;;;;;;;46.44;11.59;100353.13;5112980;28;20095;-66
2021/06/21 04:55:02;;;;;;;6.93;2.75;;;;;;;46.79;11.27;100343.28;5113769;28;20073;-66
2021/06/21 04:57:33;;;;;;;5.07;2.90;;;;;;;47.19;10.85;100361.44;5113524;28;20165;-65
2021/06/21 04:59:59;;;;;;;7.78;3.05;;;;;;;47.70;10.54;100354.34;5113120;28;20609;-66
2021/06/21 05:02:25;;;;;;;11.50;3.28;;;;;;;48.29;10.16;100360.28;5111867;28;20126;-66
2021/06/21 05:04:51;;;;;;;12.52;3.20;;;;;;;48.75;9.78;100358.91;5105121;28;20462;-65
2021/06/21 05:07:17;;;;;;;10.50;3.60;;;;;;;49.18;10.14;100359.81;5111170;28;20041;-65
2021/06/21 05:09:43;;;;;;;6.30;3.10;;;;;;;49.50;9.38;100365.34;5112008;28;20039;-65
2021/06/21 05:12:09;;;;;;;3.85;2.75;;;;;;;49.88;9.23;100371.31;5113779;28;20051;-65
2021/06/21 05:14:36;;;;;;;6.43;2.90;;;;;;;50.17;8.57;100311.19;5113767;28;20516;-67
2021/06/21 05:17:02;;;;;;;8.30;3.13;;;;;;;50.85;8.55;100362.59;5112009;28;20157;-65
2021/06/21 05:19:28;;;;;;;4.93;2.88;;;;;;;51.25;8.46;100352.50;5112475;28;20110;-64
2021/06/21 05:21:53;;;;;;;3.90;2.85;;;;;;;51.67;7.93;100355.41;5112997;28;20539;-67
2021/06/21 05:24:19;;;;;;;4.35;2.83;;;;;;;52.03;7.75;100349.97;5111525;28;20613;-68
2021/06/21 05:26:44;;;;;;;7.13;3.10;;;;;;;52.08;7.47;100349.59;5112892;28;20431;-65
2021/06/21 05:29:10;;;;;;;5.28;3.00;;;;;;;52.40;7.44;100351.06;5112682;28;20039;-64
2021/06/21 05:31:36;;;;;;;3.22;2.80;;;;;;;52.72;7.13;100349.59;5112772;28;20042;-65
2021/06/21 05:34:02;;;;;;;4.72;3.00;;;;;;;52.87;6.64;100350.47;5112847;28;20503;-63
2021/06/21 05:36:27;;;;;;;4.68;2.65;;;;;;;52.84;6.94;100346.41;5112307;28;20051;-66
2021/06/21 05:38:52;;;;;;;4.28;2.50;;;;;;;52.77;7.00;100352.06;5112123;28;20475;-66
2021/06/21 05:41:18;;;;;;;3.78;2.58;;;;;;;52.66;6.77;100338.53;5112374;28;20088;-66
2021/06/21 05:43:43;;;;;;;3.37;2.93;;;;;;;52.65;6.79;100294.03;5112310;28;20115;-66
2021/06/21 05:46:09;;;;;;;3.88;2.58;;;;;;;53.05;6.52;100316.25;5112354;28;20261;-64
2021/06/21 05:48:34;;;;;;;3.42;2.75;;;;;;;53.56;6.39;100334.31;5111823;28;20042;-67
2021/06/21 05:51:01;;;;;;;5.60;3.08;;;;;;;53.96;6.40;100337.19;5112266;28;20379;-67
2021/06/21 05:53:29;;;;;;;7.55;2.85;;;;;;;54.30;6.10;100356.78;5112244;28;20439;-65
2021/06/21 05:55:56;;;;;;;4.93;3.10;;;;;;;54.55;5.67;100337.88;5112085;28;20035;-67
2021/06/21 05:58:21;;;;;;;5.03;3.05;;;;;;;54.99;5.63;100347.09;5112163;27;20038;-67
2021/06/21 06:00:47;;;;;;;3.30;2.70;;;;;;;55.39;5.26;100346.94;5110926;28;20348;-64
2021/06/21 06:03:12;;;;;;;3.25;2.47;;;;;;;55.69;4.59;100331.91;5111988;28;20031;-62
2021/06/21 06:05:38;;;;;;;2.90;2.63;;;;;;;56.07;4.55;100340.59;5111976;28;20035;-66
2021/06/21 06:08:03;;;;;;;3.40;2.85;;;;;;;55.97;4.56;100324.28;5111951;28;20034;-68
2021/06/21 06:10:29;;;;;;;4.72;3.45;;;;;;;56.53;4.08;100343.38;5111385;28;20031;-66
2021/06/21 06:12:54;;;;;;;3.65;3.33;;;;;;;56.29;4.06;100288.63;5111042;28;20152;-67
2021/06/21 06:15:20;;;;;;;3.65;3.28;;;;;;;56.97;4.31;100345.72;5111225;28;20051;-66
2021/06/21 06:17:46;;;;;;;3.63;3.33;;;;;;;57.16;4.39;100335.56;5110789;28;20157;-65
2021/06/21 06:20:12;;;;;;;4.13;3.58;;;;;;;57.28;4.04;100348.56;5111681;28;20039;-66
2021/06/21 06:22:37;;;;;;;3.92;3.63;;;;;;;57.92;3.96;100338.03;5111650;28;20028;-67
2021/06/21 06:25:05;;;;;;;4.97;4.13;;;;;;;58.27;3.80;100346.44;5111706;28;20047;-68
2021/06/21 06:27:31;;;;;;;4.80;4.40;;;;;;;58.28;3.26;100342.31;5110702;28;20031;-62
2021/06/21 06:29:57;;;;;;;5.60;3.80;;;;;;;58.18;2.89;100314.50;5109625;28;20415;-63
2021/06/21 06:32:22;;;;;;;4.53;4.23;;;;;;;58.48;3.33;100329.97;5111649;28;20023;-63
2021/06/21 06:34:48;;;;;;;5.03;4.63;;;;;;;58.79;2.52;100335.47;5111340;28;20795;-62
2021/06/21 06:37:13;;;;;;;4.40;3.70;;;;;;;59.08;3.00;100337.69;5111328;28;20042;-63
2021/06/21 06:39:39;;;;;;;4.78;4.30;;;;;;;59.01;2.77;100330.06;5111318;28;20126;-63
2021/06/21 06:42:05;;;;;;;5.28;4.88;;;;;;;58.47;2.73;100296.63;5111411;28;20070;-63
2021/06/21 06:44:30;;;;;;;5.95;4.65;;;;;;;58.36;3.26;100328.56;5111039;28;20076;-63
2021/06/21 06:46:56;;;;;;;6.80;5.40;;;;;;;58.24;3.27;100324.28;5110690;28;20035;-63
2021/06/21 06:49:21;;;;;;;5.07;4.57;;;;;;;58.47;3.36;100320.47;5111405;28;20570;-63
2021/06/21 06:51:56;;;;;;;5.38;4.88;;;;;;;58.43;2.63;100322.63;5109811;28;20096;-64
2021/06/21 06:54:25;;;;;;;5.90;5.50;;;;;;;58.52;2.98;100275.16;5097706;28;20459;-62
2021/06/21 06:57:04;;;;;;;5.78;5.22;;;;;;;58.85;2.71;100275.22;5099152;28;20027;-63
2021/06/21 06:59:31;;;;;;;5.63;5.22;;;;;;;59.29;2.63;100315.38;5099212;28;20038;-65
2021/06/21 07:01:58;;;;;;;5.95;5.55;;;;;;;59.49;2.79;100328.94;5099000;28;20465;-63
2021/06/21 07:04:25;;;;;;;5.85;5.20;;;;;;;59.85;2.26;100314.34;5100109;28;20032;-63
2021/06/21 07:06:50;;;;;;;7.85;6.25;;;;;;;60.38;2.53;100313.31;5099032;28;20032;-63
2021/06/21 07:09:16;;;;;;;7.43;6.40;;;;;;;60.49;2.46;100306.41;5098661;28;20039;-63
2021/06/21 07:11:42;;;;;;;7.03;6.38;;;;;;;60.32;2.55;100323.78;5100450;28;20048;-63
2021/06/21 07:14:08;;;;;;;7.55;6.93;;;;;;;60.27;2.46;100328.03;5099206;28;20497;-65
2021/06/21 07:16:35;;;;;;;7.55;6.82;;;;;;;59.11;2.65;100330.22;5097831;28;20078;-64
2021/06/21 07:19:01;;;;;;;7.03;6.53;;;;;;;58.22;2.73;100315.28;5094109;28;20032;-65
2021/06/21 07:21:30;;;;;;;6.05;5.00;;;;;;;57.94;3.41;100323.22;5090752;28;20501;-63
2021/06/21 07:23:56;;;;;;;6.32;5.55;;;;;;;57.83;3.19;100308.16;5090204;28;20063;-60
2021/06/21 07:26:22;;;;;;;6.50;5.90;;;;;;;58.24;3.11;100311.94;5097260;28;20087;-60
2021/06/21 07:28:50;;;;;;;5.93;5.15;;;;;;;58.22;2.96;100320.22;5099840;28;20440;-61
2021/06/21 07:31:15;;;;;;;6.32;4.90;;;;;;;56.75;3.60;100249.03;5099112;28;20498;-61
2021/06/21 07:33:41;;;;;;;5.22;4.93;;;;;;;55.29;3.83;100302.69;5101125;28;20039;-59
2021/06/21 07:36:07;;;;;;;4.50;3.53;;;;;;;53.95;4.65;100304.03;5092197;28;20118;-60
2021/06/21 07:38:33;;;;;;;3.92;3.63;;;;;;;53.18;4.84;100313.81;5089199;28;20036;-60
2021/06/21 07:40:59;;;;;;;4.70;3.75;;;;;;;52.87;5.27;100299.03;5090816;28;20036;-62
2021/06/21 07:43:24;;;;;;;3.67;3.47;;;;;;;52.90;5.22;100299.03;5099667;28;20042;-60
2021/06/21 07:45:50;;;;;;;4.22;2.88;;;;;;;51.79;5.58;100263.75;5097530;28;20527;-62
2021/06/21 07:48:17;;;;;;;3.55;3.25;;;;;;;51.20;6.07;100298.66;5089908;28;20086;-61
2021/06/21 07:50:42;;;;;;;3.75;3.33;;;;;;;52.24;5.31;100302.78;5102644;28;20032;-63
2021/06/21 07:53:09;;;;;;;5.85;3.38;;;;;;;53.46;5.32;100301.59;5109411;28;20042;-64
2021/06/21 07:55:35;;;;;;;3.60;3.20;;;;;;;54.28;4.94;100310.56;5106477;28;20123;-63
2021/06/21 07:58:01;;;;;;;6.57;3.53;;;;;;;55.08;4.08;100304.47;5107298;28;20065;-61
2021/06/21 08:00:28;;;;;;;6.20;3.53;;;;;;;55.56;3.96;100259.84;5100649;28;20136;-62
2021/06/21 08:02:55;;;;;;;5.88;3.83;;;;;;;56.36;3.98;100302.94;5095942;28;20159;-70
2021/06/21 08:05:21;;;;;;;5.03;3.78;;;;;;;56.36;3.96;100259.81;5089059;28;20035;-65
2021/06/21 08:07:48;;;;;;;7.03;4.32;;;;;;;56.41;4.10;100298.78;5091675;28;20103;-59
2021/06/21 08:10:15;;;;;;;5.88;4.88;;;;;;;56.24;4.08;100303.47;5088277;28;20063;-62
2021/06/21 08:12:42;;;;;;;6.68;4.90;;;;;;;56.21;4.00;100298.59;5089325;28;20059;-63
2021/06/21 08:15:10;;;;;;;8.10;5.03;;;;;;;55.82;4.39;100286.25;5087518;28;20430;-61
2021/06/21 08:17:36;;;;;;;6.15;5.55;;;;;;;55.18;4.29;100302.78;5089657;28;20044;-60
2021/06/21 08:20:04;;;;;;;8.15;5.30;;;;;;;54.47;4.76;100309.28;5089163;28;20031;-60
2021/06/21 08:22:30;;;;;;;4.70;4.20;;;;;;;53.84;4.97;100311.84;5090229;28;20457;-62
2021/06/21 08:24:56;;;;;;;5.60;3.95;;;;;;;52.09;5.80;100296.19;5093974;28;20028;-65
2021/06/21 08:27:21;;;;;;;4.50;3.60;;;;;;;49.73;7.58;100321.00;5102901;28;20044;-64
2021/06/21 08:29:47;;;;;;;3.72;2.80;;;;;;;47.27;8.63;100283.97;5109702;28;20044;-61
2021/06/21 08:32:12;;;;;;;3.85;2.65;;;;;;;45.21;9.90;100309.34;5088822;28;20157;-63
2021/06/21 08:34:39;;;;;;;3.95;2.58;;;;;;;43.29;11.41;100282.72;5087860;28;20752;-62
2021/06/21 08:37:05;;;;;;;5.97;2.70;;;;;;;41.95;12.95;100303.72;5091658;28;20130;-63
2021/06/21 08:39:32;;;;;;;7.57;3.10;;;;;;;40.74;14.33;100293.84;5087579;28;20036;-65
2021/06/21 08:41:58;;;;;;;6.20;3.00;;;;;;;39.88;14.44;100298.19;5088925;28;20059;-62
2021/06/21 08:44:25;;;;;;;3.28;2.50;;;;;;;39.34;15.51;100310.59;5089236;28;20059;-62
2021/06/21 08:46:51;;;;;;;4.13;2.55;;;;;;;38.30;16.12;100240.50;5092634;28;20059;-62
2021/06/21 08:49:21;;;;;;;6.43;2.78;;;;;;;38.14;16.67;100302.25;5095603;28;20039;-61
2021/06/21 08:51:49;;;;;;;2.40;2.20;;;;;;;37.60;16.84;100307.81;5111100;28;20402;-63
2021/06/21 08:54:15;;;;;;;3.40;2.70;;;;;;;37.25;17.26;100307.00;5107425;28;20034;-65
2021/06/21 08:56:40;;;;;;;3.67;2.45;;;;;;;36.97;17.52;100306.63;5098148;28;20047;-62
2021/06/21 08:59:07;;;;;;;3.88;2.50;;;;;;;36.70;18.04;100310.72;5097730;28;20039;-61
2021/06/21 09:01:38;;;;;;;3.45;2.60;;;;;;;36.22;18.58;100300.03;5105196;28;20028;-64
2021/06/21 09:04:04;;;;;;;4.38;2.70;;;;;;;36.01;19.02;100302.84;5098003;28;20024;-63
2021/06/21 09:06:38;;;;;;;5.53;2.50;;;;;;;36.02;19.01;100295.38;5103075;28;20113;-65
2021/06/21 09:09:05;;;;;;;5.93;2.78;;;;;;;35.99;19.09;100293.13;5095013;28;20040;-62
2021/06/21 09:11:46;;;;;;;4.30;2.90;;;;;;;36.26;18.83;100303.91;5091484;28;20051;-64
2021/06/21 09:14:28;;;;;;;3.65;2.35;;;;;;;36.31;18.89;100300.28;5093973;28;20168;-63
2021/06/21 09:17:07;;;;;;;3.42;2.58;;;;;;;36.25;18.99;100302.25;5092097;28;20048;-64
2021/06/21 09:19:49;;;;;;;5.38;2.65;;;;;;;36.22;19.16;100299.22;5095959;28;20431;-62
2021/06/21 09:22:22;;;;;;;6.38;2.70;;;;;;;35.92;19.22;100283.09;5099755;28;20027;-62
2021/06/21 09:24:47;;;;;;;7.88;2.90;;;;;;;35.66;19.52;100282.34;5113161;28;20039;-62
2021/06/21 09:27:18;;;;;;;6.45;2.60;;;;;;;35.45;20.13;100284.28;5096464;27;20036;-63
2021/06/21 09:29:43;;;;;;;6.38;2.40;;;;;;;35.42;20.08;100268.97;5091454;28;20048;-63
2021/06/21 09:32:09;;;;;;;4.35;2.35;;;;;;;35.48;19.98;100289.31;5091444;28;20145;-65
2021/06/21 09:34:34;;;;;;;4.53;2.50;;;;;;;35.39;20.35;100286.25;5091525;28;20059;-62
2021/06/21 09:37:08;;;;;;;3.88;2.33;;;;;;;35.42;20.08;100296.81;5091530;28;20036;-63
2021/06/21 09:39:39;;;;;;;6.20;2.58;;;;;;;35.33;20.74;100302.13;5093237;28;20032;-63
2021/06/21 09:42:23;;;;;;;5.10;2.65;;;;;;;35.43;20.84;100304.06;5092127;28;20032;-64
2021/06/21 09:44:55;;;;;;;5.83;2.90;;;;;;;35.32;21.15;100303.22;5092205;28;20038;-66
2021/06/21 09:47:25;;;;;;;7.78;3.13;;;;;;;35.30;21.54;100294.31;5091646;28;20710;-63
2021/06/21 09:50:11;;;;;;;4.70;2.97;;;;;;;35.34;21.44;100289.03;5091799;28;20032;-66
2021/06/21 09:52:39;;;;;;;5.50;2.90;;;;;;;35.33;21.82;100287.38;5091581;28;20040;-65
2021/06/21 09:55:20;;;;;;;5.72;2.92;;;;;;;35.33;21.95;100299.31;5091155;28;20067;-61
2021/06/21 09:57:58;;;;;;;4.75;3.25;;;;;;;35.24;21.94;100284.31;5091697;28;20067;-63
2021/06/21 10:00:24;;;;;;;5.82;3.20;;;;;;;35.19;22.10;100292.63;5091363;28;20039;-60
2021/06/21 10:03:11;;;;;;;5.18;2.83;;;;;;;35.13;21.87;100271.50;5090790;28;20032;-63
2021/06/21 10:05:42;;;;;;;3.95;2.65;;;;;;;35.22;21.72;100292.09;5090408;28;20035;-60
2021/06/21 10:08:10;;;;;;;5.57;3.17;;;;;;;34.91;21.88;100245.59;5090989;28;20039;-63
2021/06/21 10:10:36;;;;;;;3.97;3.47;;;;;;;35.12;22.26;100287.38;5090937;28;20084;-62
2021/06/21 10:13:03;;;;;;;4.57;2.80;;;;;;;35.06;21.95;100283.75;5091176;28;20060;-63
2021/06/21 10:15:29;;;;;;;3.72;3.17;;;;;;;35.06;22.31;100266.19;5103042;28;20044;-65
2021/06/21 10:17:54;;;;;;;4.85;2.88;;;;;;;35.05;22.50;100284.00;5111718;28;20058;-62
2021/06/21 10:20:20;;;;;;;3.42;2.67;;;;;;;35.03;22.09;100281.53;5111329;28;20462;-66
2021/06/21 10:22:45;;;;;;;3.70;2.55;;;;;;;34.74;21.70;100236.69;5111471;28;20475;-66
2021/06/21 10:25:12;;;;;;;6.05;2.67;;;;;;;34.74;22.04;100283.94;5110157;28;20159;-64
2021/06/21 10:27:40;;;;;;;4.15;2.80;;;;;;;34.57;22.12;100278.63;5110731;27;20120;-61
2021/06/21 10:30:11;;;;;;;7.13;2.88;;;;;;;34.52;22.37;100278.63;5111241;28;20074;-63
2021/06/21 10:32:37;;;;;;;7.13;2.67;;;;;;;34.43;22.47;100279.09;5111457;28;20039;-64
2021/06/21 10:35:03;;;;;;;4.47;2.80;;;;;;;34.38;21.97;100264.38;5110376;28;20028;-61
2021/06/21 10:37:29;;;;;;;7.15;3.10;;;;;;;34.29;22.32;100270.44;5110791;28;20035;-64
2021/06/21 10:40:00;;;;;;;4.72;2.78;;;;;;;34.29;22.55;100269.63;5093189;28;20032;-63
2021/06/21 10:42:28;;;;;;;3.63;2.85;;;;;;;34.31;22.95;100262.66;5089570;28;20039;-61
2021/06/21 10:44:58;;;;;;;5.82;2.92;;;;;;;34.52;22.93;100268.31;5090633;28;20119;-64
2021/06/21 10:47:29;;;;;;;4.57;2.80;;;;;;;34.71;22.79;100260.28;5090262;28;20036;-62
2021/06/21 10:50:15;;;;;;;8.23;3.05;;;;;;;34.92;22.02;100265.88;5090605;28;20040;-63
2021/06/21 10:52:44;;;;;;;4.32;2.85;;;;;;;34.95;21.75;100245.03;5090378;28;20511;-62
2021/06/21 10:55:25;;;;;;;3.60;2.97;;;;;;;34.96;22.14;100247.53;5089835;28;20036;-61
2021/06/21 10:57:57;;;;;;;8.43;2.85;;;;;;;34.87;22.52;100250.06;5090180;28;20044;-64
2021/06/21 11:00:38;;;;;;;3.53;2.80;;;;;;;34.66;22.43;100224.16;5096857;28;20513;-62
2021/06/21 11:03:33;;;;;;;5.10;3.00;;;;;;;34.68;22.84;100252.50;5110517;28;20059;-63
2021/06/21 11:06:01;;;;;;;4.72;3.15;;;;;;;34.44;23.51;100244.63;5110004;27;20663;-64
2021/06/21 11:08:47;;;;;;;3.75;2.85;;;;;;;34.43;23.54;100242.16;5109010;28;20073;-66
2021/06/21 11:11:38;;;;;;;5.15;2.75;;;;;;;34.39;23.46;100250.19;5110037;28;20122;-66
2021/06/21 11:14:26;;;;;;;4.28;3.00;;;;;;;34.35;23.33;100241.56;5109730;28;20062;-63
2021/06/21 11:17:23;;;;;;;4.28;2.60;;;;;;;34.38;23.54;100231.03;5089904;28;20409;-62
2021/06/21 11:19:49;;;;;;;5.88;2.30;;;;;;;34.35;23.52;100235.19;5089800;28;20052;-59
2021/06/21 11:22:16;;;;;;;5.38;2.38;;;;;;;34.24;23.77;100233.47;5089685;28;20518;-62
2021/06/21 11:24:46;;;;;;;4.68;2.50;;;;;;;34.21;23.51;100226.53;5089390;28;20039;-63
2021/06/21 11:27:20;;;;;;;4.22;2.47;;;;;;;34.22;23.64;100242.91;5089434;28;20036;-62
2021/06/21 11:29:54;;;;;;;2.65;2.30;;;;;;;33.90;23.28;100184.72;5089484;28;20348;-62
2021/06/21 11:32:21;;;;;;;3.88;2.30;;;;;;;34.11;23.56;100229.25;5089735;28;20040;-59
2021/06/21 11:34:54;;;;;;;4.65;2.22;;;;;;;34.05;23.48;100231.19;5089608;28;20028;-60